createdAt,value
2022-09-21T00:00:26.182Z,99618.50
2022-09-21T00:03:11.927Z,99612.97
2022-09-21T00:06:12.311Z,99621.28
2022-09-21T00:08:57.743Z,99612.19
2022-09-21T00:11:42.949Z,99613.75
2022-09-21T00:14:28.633Z,99612.97
2022-09-21T00:17:13.950Z,99612.19
2022-09-21T00:20:01.448Z,99614.94
2022-09-21T00:22:47.849Z,99610.19
2022-09-21T00:25:33.321Z,99613.38
2022-09-21T00:28:18.504Z,99616.16
2022-09-21T00:31:13.711Z,99613.38
2022-09-21T00:34:00.346Z,99618.94
2022-09-21T00:36:46.176Z,99627.22
2022-09-21T00:39:31.687Z,99622.09
2022-09-21T00:42:21.612Z,99621.31
2022-09-21T00:45:07.412Z,99620.09
2022-09-21T00:47:53.089Z,99620.09
2022-09-21T00:50:45.763Z,99624.47
2022-09-21T00:53:32.162Z,99621.31
2022-09-21T00:56:17.766Z,99611.78
2022-09-21T00:59:03.944Z,99623.25
2022-09-21T01:01:49.862Z,99622.47
2022-09-21T01:04:36.258Z,99622.47
2022-09-21T01:07:27.620Z,99622.47
2022-09-21T01:10:17.462Z,99629.59
2022-09-21T01:13:27.693Z,99626.03
2022-09-21T01:16:27.042Z,99625.25
2022-09-21T01:19:30.932Z,99631.56
2022-09-21T01:22:53.906Z,99635.53
2022-09-21T01:26:11.579Z,99634.75
2022-09-21T01:29:16.917Z,99640.28
2022-09-21T01:32:08.428Z,99635.94
2022-09-21T01:34:54.468Z,99636.31
2022-09-21T01:37:48.021Z,99623.69
2022-09-21T01:40:43.944Z,99625.25
2022-09-21T01:43:46.890Z,99637.53
2022-09-21T01:46:33.993Z,99639.09
2022-09-21T01:49:36.334Z,99632.78
2022-09-21T01:52:39.836Z,99641.84
2022-09-21T01:55:39.434Z,99643.06
2022-09-21T01:58:33.650Z,99643.84
2022-09-21T02:01:23.135Z,99648.59
2022-09-21T02:04:11.400Z,99641.06
2022-09-21T02:06:56.897Z,99649.38
2022-09-21T02:09:42.234Z,99643.06
2022-09-21T02:12:27.391Z,99645.00
2022-09-21T02:15:13.077Z,99640.28
2022-09-21T02:18:14.204Z,99646.63
2022-09-21T02:21:03.903Z,99647.00
2022-09-21T02:24:22.982Z,99652.94
2022-09-21T02:27:52.875Z,99651.38
2022-09-21T02:30:41.008Z,99655.31
2022-09-21T02:33:32.410Z,99658.06
2022-09-21T02:36:31.941Z,99658.06
2022-09-21T02:39:39.036Z,99660.06
2022-09-21T02:42:31.512Z,99662.84
2022-09-21T02:45:22.627Z,99660.84
2022-09-21T02:48:18.666Z,99667.59
2022-09-21T02:51:10.746Z,99662.06
2022-09-21T02:53:57.017Z,99673.13
2022-09-21T02:56:42.610Z,99664.81
2022-09-21T02:59:28.603Z,99666.78
2022-09-21T03:02:14.589Z,99674.69
2022-09-21T03:05:00.075Z,99674.31
2022-09-21T03:07:45.280Z,99675.91
2022-09-21T03:10:30.379Z,99677.06
2022-09-21T03:13:15.804Z,99682.59
2022-09-21T03:16:07.152Z,99678.66
2022-09-21T03:18:52.805Z,99674.69
2022-09-21T03:21:43.780Z,99683.41
2022-09-21T03:24:45.455Z,99682.59
2022-09-21T03:27:30.925Z,99686.56
2022-09-21T03:30:16.216Z,99684.97
2022-09-21T03:33:01.444Z,99683.41
2022-09-21T03:35:50.562Z,99688.94
2022-09-21T03:38:36.552Z,99691.31
2022-09-21T03:41:22.524Z,99684.97
2022-09-21T03:44:07.724Z,99681.00
2022-09-21T03:46:53.759Z,99692.09
2022-09-21T03:49:38.986Z,99685.38
2022-09-21T03:52:24.261Z,99686.16
2022-09-21T03:55:10.689Z,99689.72
2022-09-21T03:57:56.687Z,99684.97
2022-09-21T04:00:42.342Z,99692.09
2022-09-21T04:03:27.881Z,99685.75
2022-09-21T04:06:13.825Z,99693.28
2022-09-21T04:09:00.425Z,99702.38
2022-09-21T04:11:46.208Z,99692.50
2022-09-21T04:14:31.548Z,99695.66
2022-09-21T04:17:17.130Z,99693.69
2022-09-21T04:20:02.553Z,99700.78
2022-09-21T04:22:48.142Z,99696.81
2022-09-21T04:25:33.689Z,99696.81
2022-09-21T04:28:19.571Z,99695.59
2022-09-21T04:31:05.037Z,99698.00
2022-09-21T04:33:55.107Z,99706.69
2022-09-21T04:36:40.560Z,99700.72
2022-09-21T04:39:26.263Z,99704.69
2022-09-21T04:42:11.413Z,99705.84
2022-09-21T04:44:56.976Z,99702.31
2022-09-21T04:47:42.206Z,99711.38
2022-09-21T04:50:28.013Z,99710.97
2022-09-21T04:53:21.497Z,99712.56
2022-09-21T04:56:08.251Z,99713.34
2022-09-21T04:58:53.518Z,99717.31
2022-09-21T05:01:39.428Z,99721.25
2022-09-21T05:04:24.615Z,99722.03
2022-09-21T05:07:09.898Z,99722.84
2022-09-21T05:10:04.183Z,99720.09
2022-09-21T05:12:50.063Z,99726.00
2022-09-21T05:15:38.003Z,99726.81
2022-09-21T05:18:23.368Z,99731.97
2022-09-21T05:21:11.398Z,99733.19
2022-09-21T05:23:57.475Z,99738.34
2022-09-21T05:26:42.932Z,99749.03
2022-09-21T05:29:28.498Z,99752.97
2022-09-21T05:32:17.008Z,99756.16
2022-09-21T05:35:28.658Z,99749.81
2022-09-21T05:38:18.960Z,99759.31
2022-09-21T05:41:05.072Z,99758.53
2022-09-21T05:43:50.605Z,99758.94
2022-09-21T05:46:52.724Z,99764.47
2022-09-21T05:49:49.074Z,99765.66
2022-09-21T05:53:15.527Z,99768.03
2022-09-21T05:56:08.453Z,99768.03
2022-09-21T05:59:22.073Z,99772.78
2022-09-21T06:02:23.162Z,99773.56
2022-09-21T06:05:13.413Z,99770.03
2022-09-21T06:07:58.871Z,99771.19
2022-09-21T06:10:44.233Z,99778.72
2022-09-21T06:13:29.459Z,99774.38
2022-09-21T06:16:14.683Z,99775.16
2022-09-21T06:18:59.917Z,99778.31
2022-09-21T06:21:45.516Z,99777.16
2022-09-21T06:24:30.927Z,99775.16
2022-09-21T06:27:16.086Z,99787.03
2022-09-21T06:30:01.382Z,99780.69
2022-09-21T06:32:46.538Z,99784.69
2022-09-21T06:35:33.809Z,99791.00
2022-09-21T06:38:19.191Z,99783.06
2022-09-21T06:41:05.395Z,99791.38
2022-09-21T06:43:55.689Z,99782.28
2022-09-21T06:46:41.232Z,99785.06
2022-09-21T06:49:28.762Z,99787.84
2022-09-21T06:52:14.255Z,99779.91
2022-09-21T06:54:59.389Z,99784.66
2022-09-21T06:57:44.976Z,99787.03
2022-09-21T07:00:31.612Z,99787.03
2022-09-21T07:03:16.858Z,99794.56
2022-09-21T07:06:02.707Z,99793.78
2022-09-21T07:11:54.562Z,99799.31
2022-09-21T07:14:39.872Z,99794.94
2022-09-21T07:17:25.214Z,99797.72
2022-09-21T07:20:11.039Z,99798.91
2022-09-21T07:22:57.685Z,99813.16
2022-09-21T07:25:44.097Z,99808.41
2022-09-21T07:28:30.177Z,99811.16
2022-09-21T07:31:16.789Z,99813.16
2022-09-21T07:34:02.222Z,99815.13
2022-09-21T07:36:47.474Z,99804.06
2022-09-21T07:39:32.761Z,99818.28
2022-09-21T07:42:20.093Z,99814.75
2022-09-21T07:45:06.128Z,99820.28
2022-09-21T07:47:54.229Z,99823.06
2022-09-21T07:50:39.827Z,99822.28
2022-09-21T07:53:25.138Z,99825.81
2022-09-21T07:56:16.726Z,99827.03
2022-09-21T07:59:07.833Z,99817.91
2022-09-21T08:01:53.230Z,99820.66
2022-09-21T08:04:38.722Z,99831.38
2022-09-21T08:07:23.978Z,99830.56
2022-09-21T08:10:09.981Z,99831.38
2022-09-21T08:12:56.247Z,99831.38
2022-09-21T08:15:49.737Z,99822.28
2022-09-21T08:18:40.354Z,99831.38
2022-09-21T08:21:25.647Z,99828.59
2022-09-21T08:24:11.189Z,99828.97
2022-09-21T08:26:57.831Z,99834.50
2022-09-21T08:29:43.811Z,99827.03
2022-09-21T08:32:50.073Z,99831.75
2022-09-21T08:35:37.010Z,99834.50
2022-09-21T08:38:22.810Z,99833.72
2022-09-21T08:41:19.478Z,99828.19
2022-09-21T08:44:21.543Z,99837.69
2022-09-21T08:47:19.395Z,99841.66
2022-09-21T08:50:12.463Z,99845.19
2022-09-21T08:53:13.559Z,99834.94
2022-09-21T08:55:59.641Z,99849.94
2022-09-21T08:58:44.863Z,99843.25
2022-09-21T09:02:14.830Z,99840.84
2022-09-21T09:05:23.209Z,99840.84
2022-09-21T09:08:39.439Z,99847.19
2022-09-21T09:11:32.183Z,99834.94
2022-09-21T09:14:42.668Z,99834.94
2022-09-21T09:17:53.509Z,99842.44
2022-09-21T09:21:03.753Z,99840.84
2022-09-21T09:24:04.486Z,99840.47
2022-09-21T09:27:02.778Z,99836.09
2022-09-21T09:30:02.907Z,99837.69
2022-09-21T09:32:58.582Z,99836.09
2022-09-21T09:35:51.006Z,99839.28
2022-09-21T09:38:40.738Z,99835.34
2022-09-21T09:41:55.239Z,99840.06
2022-09-21T09:44:55.641Z,99838.09
2022-09-21T09:48:02.632Z,99830.56
2022-09-21T09:50:47.821Z,99833.34
2022-09-21T09:53:33.988Z,99823.84
2022-09-21T09:56:19.619Z,99826.59
2022-09-21T09:59:10.726Z,99830.19
2022-09-21T10:02:01.108Z,99818.28
2022-09-21T10:05:06.220Z,99830.19
2022-09-21T10:07:53.081Z,99836.91
2022-09-21T10:10:41.521Z,99821.06
2022-09-21T10:13:29.237Z,99824.66
2022-09-21T10:16:20.469Z,99822.66
2022-09-21T10:19:05.918Z,99820.28
2022-09-21T10:22:02.072Z,99821.88
2022-09-21T10:24:53.148Z,99819.13
2022-09-21T10:27:45.105Z,99828.22
2022-09-21T10:30:30.557Z,99817.91
2022-09-21T10:33:22.200Z,99814.75
2022-09-21T10:36:25.554Z,99819.13
2022-09-21T10:39:21.929Z,99817.13
2022-09-21T10:42:16.369Z,99812.38
2022-09-21T10:45:16.516Z,99815.53
2022-09-21T10:48:16.620Z,99810.38
2022-09-21T10:51:03.432Z,99813.94
2022-09-21T10:53:53.761Z,99813.94
2022-09-21T10:56:54.646Z,99807.63
2022-09-21T10:59:40.305Z,99807.22
2022-09-21T11:02:31.573Z,99804.06
2022-09-21T11:05:28.533Z,99806.03
2022-09-21T11:08:38.352Z,99801.69
2022-09-21T11:11:37.711Z,99804.47
2022-09-21T11:14:45.376Z,99796.53
2022-09-21T11:18:14.592Z,99793.78
2022-09-21T11:21:09.501Z,99795.34
2022-09-21T11:24:19.724Z,99795.34
2022-09-21T11:27:27.330Z,99796.53
2022-09-21T11:30:15.409Z,99799.31
2022-09-21T11:33:15.474Z,99797.72
2022-09-21T11:36:24.073Z,99797.72
2022-09-21T11:39:24.763Z,99804.84
2022-09-21T11:42:16.587Z,99800.50
2022-09-21T11:45:07.834Z,99794.94
2022-09-21T11:48:32.281Z,99797.34
2022-09-21T11:51:24.148Z,99780.72
2022-09-21T11:54:38.019Z,99784.66
2022-09-21T11:57:29.616Z,99772.41
2022-09-21T12:00:20.345Z,99777.16
2022-09-21T12:03:14.607Z,99777.16
2022-09-21T12:06:38.105Z,99778.72
2022-09-21T12:09:49.510Z,99779.09
2022-09-21T12:13:00.826Z,99767.25
2022-09-21T12:16:03.001Z,99772.38
2022-09-21T12:19:12.341Z,99764.88
2022-09-21T12:22:09.792Z,99769.63
2022-09-21T12:25:04.457Z,99769.22
2022-09-21T12:27:57.076Z,99767.25
2022-09-21T12:30:47.739Z,99762.91
2022-09-21T12:33:43.262Z,99759.75
2022-09-21T12:36:39.584Z,99751.00
2022-09-21T12:39:32.778Z,99753.78
2022-09-21T12:42:30.633Z,99760.91
2022-09-21T12:45:25.828Z,99749.06
2022-09-21T12:48:17.107Z,99749.84
2022-09-21T12:51:25.762Z,99750.63
2022-09-21T12:54:26.075Z,99746.28
2022-09-21T12:58:04.800Z,99745.88
2022-09-21T13:01:20.759Z,99748.25
2022-09-21T13:04:31.426Z,99741.13
2022-09-21T13:07:33.404Z,99749.81
2022-09-21T13:10:28.612Z,99748.66
2022-09-21T13:13:26.359Z,99744.69
2022-09-21T13:16:35.442Z,99742.69
2022-09-21T13:19:26.786Z,99740.75
2022-09-21T13:22:25.818Z,99748.63
2022-09-21T13:25:24.703Z,99743.50
2022-09-21T13:28:13.576Z,99735.56
2022-09-21T13:31:39.799Z,99737.56
2022-09-21T13:34:28.565Z,99736.75
2022-09-21T13:37:20.345Z,99734.78
2022-09-21T13:40:05.686Z,99733.59
2022-09-21T13:42:50.852Z,99730.81
2022-09-21T13:45:36.045Z,99730.00
2022-09-21T13:48:29.524Z,99732.00
2022-09-21T13:51:16.173Z,99722.50
2022-09-21T13:54:03.954Z,99728.41
2022-09-21T13:57:00.585Z,99724.06
2022-09-21T13:59:49.306Z,99720.91
2022-09-21T14:03:04.548Z,99723.63
2022-09-21T14:05:54.610Z,99710.56
2022-09-21T14:08:50.459Z,99707.78
2022-09-21T14:11:39.085Z,99702.25
2022-09-21T14:14:30.686Z,99710.94
2022-09-21T14:17:37.633Z,99706.59
2022-09-21T14:20:32.692Z,99710.94
2022-09-21T14:23:23.162Z,99705.78
2022-09-21T14:26:35.045Z,99709.78
2022-09-21T14:29:48.562Z,99702.25
2022-09-21T14:32:41.431Z,99699.44
2022-09-21T14:35:33.761Z,99701.03
2022-09-21T14:38:25.249Z,99706.16
2022-09-21T14:41:19.971Z,99704.59
2022-09-21T14:44:06.263Z,99703.78
2022-09-21T14:47:00.706Z,99709.31
2022-09-21T14:50:23.948Z,99713.25
2022-09-21T14:53:32.734Z,99714.03
2022-09-21T14:56:30.415Z,99710.88
2022-09-21T14:59:30.121Z,99716.41
2022-09-21T15:02:25.358Z,99713.25
2022-09-21T15:05:29.467Z,99698.59
2022-09-21T15:09:09.216Z,99699.00
2022-09-21T15:12:09.889Z,99698.56
2022-09-21T15:15:23.215Z,99685.50
2022-09-21T15:18:21.218Z,99697.41
2022-09-21T15:21:21.980Z,99695.78
2022-09-21T15:24:35.608Z,99691.03
2022-09-21T15:27:23.084Z,99683.88
2022-09-21T15:30:20.790Z,99689.00
2022-09-21T15:33:06.418Z,99690.97
2022-09-21T15:35:54.582Z,99687.81
2022-09-21T15:38:40.280Z,99682.28
2022-09-21T15:41:46.014Z,99683.06
2022-09-21T15:44:37.509Z,99696.13
2022-09-21T15:47:26.269Z,99687.81
2022-09-21T15:50:14.162Z,99682.25
2022-09-21T15:53:05.774Z,99682.25
2022-09-21T15:55:52.343Z,99690.94
2022-09-21T15:58:40.514Z,99687.75
2022-09-21T16:01:25.976Z,99689.38
2022-09-21T16:04:16.236Z,99689.38
2022-09-21T16:07:31.517Z,99690.94
2022-09-21T16:10:40.281Z,99686.94
2022-09-21T16:13:44.490Z,99692.09
2022-09-21T16:16:29.809Z,99697.66
2022-09-21T16:19:16.425Z,99694.88
2022-09-21T16:22:05.449Z,99696.03
2022-09-21T16:24:57.481Z,99700.41
2022-09-21T16:28:01.243Z,99699.25
2022-09-21T16:30:51.810Z,99704.38
2022-09-21T16:33:41.316Z,99700.81
2022-09-21T16:36:32.429Z,99696.84
2022-09-21T16:39:18.953Z,99701.19
2022-09-21T16:42:05.516Z,99704.34
2022-09-21T16:44:51.302Z,99700.38
2022-09-21T16:47:37.774Z,99701.97
2022-09-21T16:50:24.649Z,99705.53
2022-09-21T16:53:10.465Z,99705.91
2022-09-21T16:55:56.315Z,99712.25
2022-09-21T16:58:45.180Z,99712.25
2022-09-21T17:01:30.733Z,99705.13
2022-09-21T17:04:17.053Z,99704.34
2022-09-21T17:07:05.398Z,99713.44
2022-09-21T17:09:51.300Z,99722.16
2022-09-21T17:12:38.259Z,99720.19
2022-09-21T17:15:25.304Z,99717.41
2022-09-21T17:18:12.848Z,99716.63
2022-09-21T17:20:58.752Z,99713.47
2022-09-21T17:23:44.056Z,99714.63
2022-09-21T17:26:29.512Z,99717.00
2022-09-21T17:29:28.038Z,99713.44
2022-09-21T17:32:14.716Z,99717.78
2022-09-21T17:35:28.804Z,99713.44
2022-09-21T17:38:14.804Z,99719.38
2022-09-21T17:41:04.696Z,99717.78
2022-09-21T17:43:58.635Z,99726.13
2022-09-21T17:47:09.506Z,99732.09
2022-09-21T17:49:59.090Z,99730.91
2022-09-21T17:53:03.919Z,99741.59
2022-09-21T17:55:58.157Z,99737.25
2022-09-21T17:59:03.441Z,99737.28
2022-09-21T18:01:49.023Z,99737.69
2022-09-21T18:04:35.388Z,99733.75
2022-09-21T18:07:21.341Z,99741.69
2022-09-21T18:10:07.551Z,99737.31
2022-09-21T18:13:15.822Z,99747.63
2022-09-21T18:16:19.937Z,99746.06
2022-09-21T18:19:05.347Z,99748.84
2022-09-21T18:21:57.143Z,99742.50
2022-09-21T18:24:43.911Z,99757.56
2022-09-21T18:27:29.634Z,99750.44
2022-09-21T18:30:16.834Z,99754.38
2022-09-21T18:33:16.027Z,99759.94
2022-09-21T18:36:24.688Z,99759.16
2022-09-21T18:39:28.119Z,99762.31
2022-09-21T18:42:50.951Z,99762.34
2022-09-21T18:45:44.198Z,99759.59
2022-09-21T18:49:01.798Z,99758.41
2022-09-21T18:51:58.926Z,99773.06
2022-09-21T18:54:45.082Z,99763.16
2022-09-21T18:57:32.523Z,99766.34
2022-09-21T19:00:18.626Z,99765.56
2022-09-21T19:03:23.644Z,99763.97
2022-09-21T19:06:27.420Z,99763.16
2022-09-21T19:09:22.063Z,99755.28
2022-09-21T19:12:32.051Z,99750.94
2022-09-21T19:16:00.383Z,99756.09
2022-09-21T19:18:59.947Z,99755.28
2022-09-21T19:21:58.492Z,99749.72
2022-09-21T19:24:57.169Z,99759.25
2022-09-21T19:28:28.982Z,99760.03
2022-09-21T19:31:20.379Z,99755.69
2022-09-21T19:34:23.907Z,99766.78
2022-09-21T19:37:09.446Z,99763.19
2022-09-21T19:39:55.348Z,99758.88
2022-09-21T19:43:20.808Z,99763.19
2022-09-21T19:46:09.179Z,99760.84
2022-09-21T19:49:01.505Z,99751.31
2022-09-21T19:51:49.111Z,99753.72
2022-09-21T19:54:53.908Z,99754.91
2022-09-21T19:57:58.526Z,99762.03
2022-09-21T20:00:45.533Z,99764.00
2022-09-21T20:03:39.455Z,99757.28
2022-09-21T20:06:38.856Z,99758.84
2022-09-21T20:09:29.685Z,99759.25
2022-09-21T20:12:49.180Z,99754.88
2022-09-21T20:15:41.597Z,99759.69
2022-09-21T20:18:40.729Z,99756.91
2022-09-21T20:21:38.378Z,99756.47
2022-09-21T20:24:42.197Z,99750.53
2022-09-21T20:27:27.780Z,99753.72
2022-09-21T20:30:15.506Z,99757.25
2022-09-21T20:33:07.366Z,99757.66
2022-09-21T20:35:55.429Z,99754.47
2022-09-21T20:38:44.219Z,99753.25
2022-09-21T20:41:30.183Z,99752.06
2022-09-21T20:44:15.837Z,99756.03
2022-09-21T20:47:01.090Z,99748.50
2022-09-21T20:49:47.687Z,99754.03
2022-09-21T20:52:34.710Z,99753.25
2022-09-21T20:55:20.494Z,99753.59
2022-09-21T20:58:05.781Z,99752.03
2022-09-21T21:00:56.414Z,99752.03
2022-09-21T21:03:43.985Z,99754.47
2022-09-21T21:06:34.072Z,99749.31
2022-09-21T21:09:19.741Z,99756.84
2022-09-21T21:12:05.195Z,99749.72
2022-09-21T21:14:51.264Z,99753.28
2022-09-21T21:17:36.770Z,99748.13
2022-09-21T21:20:22.296Z,99740.22
2022-09-21T21:23:08.321Z,99744.97
2022-09-21T21:25:54.035Z,99746.97
2022-09-21T21:28:39.245Z,99752.91
2022-09-21T21:31:25.123Z,99743.00
2022-09-21T21:34:10.879Z,99738.25
2022-09-21T21:36:56.587Z,99745.41
2022-09-21T21:39:42.608Z,99735.47
2022-09-21T21:42:29.523Z,99738.69
2022-09-21T21:45:15.260Z,99739.06
2022-09-21T21:48:02.404Z,99737.50
2022-09-21T21:50:47.881Z,99737.09
2022-09-21T21:53:35.545Z,99733.91
2022-09-21T21:56:22.741Z,99735.09
2022-09-21T21:59:07.950Z,99733.53
2022-09-21T22:01:54.613Z,99731.13
2022-09-21T22:04:40.409Z,99733.13
2022-09-21T22:07:25.790Z,99727.59
2022-09-21T22:10:11.053Z,99735.91
2022-09-21T22:12:57.370Z,99728.41
2022-09-21T22:15:42.728Z,99728.41
2022-09-21T22:18:27.971Z,99724.41
2022-09-21T22:21:16.087Z,99722.84
2022-09-21T22:24:05.125Z,99716.50
2022-09-21T22:26:50.684Z,99712.16
2022-09-21T22:29:35.979Z,99709.78
2022-09-21T22:32:21.221Z,99712.94
2022-09-21T22:35:06.733Z,99718.47
2022-09-21T22:37:52.800Z,99716.09
2022-09-21T22:40:38.119Z,99716.50
2022-09-21T22:43:23.683Z,99714.94
2022-09-21T22:46:09.294Z,99712.56
2022-09-21T22:48:55.224Z,99713.72
2022-09-21T22:51:40.573Z,99716.09
2022-09-21T22:54:27.684Z,99706.22
2022-09-21T22:57:13.130Z,99700.69
2022-09-21T22:59:58.446Z,99710.56
2022-09-21T23:02:44.866Z,99709.78
2022-09-21T23:05:30.088Z,99714.53
2022-09-21T23:08:15.722Z,99708.22
2022-09-21T23:11:37.784Z,99711.38
2022-09-21T23:14:23.541Z,99704.66
2022-09-21T23:17:08.942Z,99703.84
2022-09-21T23:19:54.139Z,99704.66
2022-09-21T23:22:39.534Z,99707.44
2022-09-21T23:25:25.189Z,99703.84
2022-09-21T23:28:10.500Z,99709.38
2022-09-21T23:30:57.773Z,99713.38
2022-09-21T23:33:46.156Z,99717.31
2022-09-21T23:36:32.253Z,99706.22
2022-09-21T23:39:17.476Z,99703.88
2022-09-21T23:42:02.771Z,99703.06
2022-09-21T23:44:48.084Z,99700.28
2022-09-21T23:47:33.469Z,99706.25
2022-09-21T23:50:18.754Z,99716.56
2022-09-21T23:53:04.042Z,99713.78
2022-09-21T23:55:49.642Z,99712.56
2022-09-21T23:58:35.602Z,99709.03
